sensor_id;sensor_type;location;lat;lon;timestamp;pressure;altitude;pressure_sealevel;temperature;humidity
13800;BME280;6971;50.028;9.258;2023-08-17T00:00:49;99590.78;;;17.01;100.00
13800;BME280;6971;50.028;9.258;2023-08-17T00:05:49;99587.94;;;17.04;100.00
13800;BME280;6971;50.028;9.258;2023-08-17T00:10:49;99596.72;;;16.93;100.00
13800;BME280;6971;50.028;9.258;2023-08-17T00:15:50;99593.19;;;16.81;100.00
13800;BME280;6971;50.028;9.258;2023-08-17T00:20:51;99593.44;;;16.78;100.00
13800;BME280;6971;50.028;9.258;2023-08-17T00:25:51;99591.75;;;16.89;100.00
13800;BME280;6971;50.028;9.258;2023-08-17T00:30:52;99600.47;;;17.02;100.00
13800;BME280;6971;50.028;9.258;2023-08-17T00:35:53;99605.91;;;16.89;100.00
13800;BME280;6971;50.028;9.258;2023-08-17T00:40:53;99595.50;;;16.86;100.00
13800;BME280;6971;50.028;9.258;2023-08-17T00:45:55;99605.44;;;16.84;100.00
13800;BME280;6971;50.028;9.258;2023-08-17T00:50:57;99596.97;;;16.90;100.00
13800;BME280;6971;50.028;9.258;2023-08-17T00:56:01;99592.69;;;16.76;100.00
13800;BME280;6971;50.028;9.258;2023-08-17T01:01:01;99576.84;;;16.63;100.00
13800;BME280;6971;50.028;9.258;2023-08-17T01:06:03;99576.09;;;16.61;100.00
13800;BME280;6971;50.028;9.258;2023-08-17T01:16:39;99568.00;;;16.63;100.00
13800;BME280;6971;50.028;9.258;2023-08-17T01:21:42;99567.78;;;16.66;100.00
13800;BME280;6971;50.028;9.258;2023-08-17T01:26:44;99563.88;;;16.58;100.00
13800;BME280;6971;50.028;9.258;2023-08-17T01:37:00;99556.16;;;16.55;100.00
13800;BME280;6971;50.028;9.258;2023-08-17T01:42:01;99545.16;;;16.49;100.00
13800;BME280;6971;50.028;9.258;2023-08-17T01:47:03;99541.38;;;16.40;100.00
13800;BME280;6971;50.028;9.258;2023-08-17T01:52:03;99533.41;;;16.28;100.00
13800;BME280;6971;50.028;9.258;2023-08-17T01:57:04;99520.31;;;16.25;100.00
13800;BME280;6971;50.028;9.258;2023-08-17T02:02:04;99520.44;;;16.24;100.00
13800;BME280;6971;50.028;9.258;2023-08-17T02:07:05;99518.97;;;16.20;100.00
13800;BME280;6971;50.028;9.258;2023-08-17T02:12:06;99510.00;;;16.09;100.00
13800;BME280;6971;50.028;9.258;2023-08-17T02:17:06;99516.03;;;16.11;100.00
13800;BME280;6971;50.028;9.258;2023-08-17T02:22:08;99506.28;;;16.23;100.00
13800;BME280;6971;50.028;9.258;2023-08-17T02:27:09;99505.09;;;16.27;100.00
13800;BME280;6971;50.028;9.258;2023-08-17T02:32:10;99502.06;;;16.21;100.00
13800;BME280;6971;50.028;9.258;2023-08-17T02:37:10;99504.72;;;16.21;100.00
13800;BME280;6971;50.028;9.258;2023-08-17T02:42:11;99495.53;;;16.13;100.00
13800;BME280;6971;50.028;9.258;2023-08-17T02:47:11;99501.88;;;15.99;100.00
13800;BME280;6971;50.028;9.258;2023-08-17T02:52:12;99501.38;;;15.94;100.00
13800;BME280;6971;50.028;9.258;2023-08-17T02:57:12;99506.78;;;15.92;100.00
13800;BME280;6971;50.028;9.258;2023-08-17T03:02:13;99512.44;;;15.88;100.00
13800;BME280;6971;50.028;9.258;2023-08-17T03:07:14;99510.09;;;15.96;100.00
13800;BME280;6971;50.028;9.258;2023-08-17T03:12:14;99512.75;;;15.96;100.00
13800;BME280;6971;50.028;9.258;2023-08-17T03:17:15;99514.16;;;15.89;100.00
13800;BME280;6971;50.028;9.258;2023-08-17T03:22:16;99504.72;;;15.85;100.00
13800;BME280;6971;50.028;9.258;2023-08-17T03:27:16;99498.66;;;15.83;100.00
13800;BME280;6971;50.028;9.258;2023-08-17T03:32:17;99499.84;;;15.78;100.00
13800;BME280;6971;50.028;9.258;2023-08-17T03:37:18;99495.00;;;15.72;100.00
13800;BME280;6971;50.028;9.258;2023-08-17T03:42:18;99495.78;;;15.61;100.00
13800;BME280;6971;50.028;9.258;2023-08-17T03:47:19;99503.09;;;15.46;100.00
13800;BME280;6971;50.028;9.258;2023-08-17T03:52:20;99512.22;;;15.42;100.00
13800;BME280;6971;50.028;9.258;2023-08-17T03:57:20;99515.09;;;15.39;100.00
13800;BME280;6971;50.028;9.258;2023-08-17T04:02:21;99519.81;;;15.35;100.00
13800;BME280;6971;50.028;9.258;2023-08-17T04:07:22;99533.16;;;15.47;100.00
13800;BME280;6971;50.028;9.258;2023-08-17T04:12:23;99529.84;;;15.43;100.00
13800;BME280;6971;50.028;9.258;2023-08-17T04:17:24;99531.00;;;15.52;100.00
13800;BME280;6971;50.028;9.258;2023-08-17T04:22:25;99536.50;;;15.62;100.00
13800;BME280;6971;50.028;9.258;2023-08-17T04:27:25;99537.50;;;15.72;100.00
13800;BME280;6971;50.028;9.258;2023-08-17T04:32:26;99536.53;;;15.73;100.00
13800;BME280;6971;50.028;9.258;2023-08-17T04:37:26;99537.03;;;15.78;100.00
13800;BME280;6971;50.028;9.258;2023-08-17T04:42:27;99543.81;;;15.83;100.00
13800;BME280;6971;50.028;9.258;2023-08-17T04:47:28;99542.59;;;15.75;100.00
13800;BME280;6971;50.028;9.258;2023-08-17T04:52:28;99545.97;;;15.77;100.00
13800;BME280;6971;50.028;9.258;2023-08-17T04:57:28;99540.66;;;15.77;100.00
13800;BME280;6971;50.028;9.258;2023-08-17T05:02:29;99556.84;;;15.99;100.00
13800;BME280;6971;50.028;9.258;2023-08-17T05:07:29;99559.31;;;15.89;100.00
13800;BME280;6971;50.028;9.258;2023-08-17T05:12:30;99553.00;;;16.03;100.00
13800;BME280;6971;50.028;9.258;2023-08-17T05:17:30;99558.59;;;16.11;100.00
13800;BME280;6971;50.028;9.258;2023-08-17T05:22:31;99562.38;;;16.20;100.00
13800;BME280;6971;50.028;9.258;2023-08-17T05:27:31;99547.50;;;16.29;100.00
13800;BME280;6971;50.028;9.258;2023-08-17T05:32:31;99559.72;;;16.31;100.00
13800;BME280;6971;50.028;9.258;2023-08-17T05:37:32;99569.16;;;16.36;100.00
13800;BME280;6971;50.028;9.258;2023-08-17T05:42:33;99574.03;;;16.42;100.00
13800;BME280;6971;50.028;9.258;2023-08-17T05:47:33;99581.88;;;16.43;100.00
13800;BME280;6971;50.028;9.258;2023-08-17T05:52:34;99578.44;;;16.66;100.00
13800;BME280;6971;50.028;9.258;2023-08-17T05:57:34;99572.38;;;16.75;100.00
13800;BME280;6971;50.028;9.258;2023-08-17T06:02:35;99569.13;;;16.83;100.00
13800;BME280;6971;50.028;9.258;2023-08-17T06:07:35;99576.16;;;16.84;100.00
13800;BME280;6971;50.028;9.258;2023-08-17T06:12:35;99575.16;;;16.74;100.00
13800;BME280;6971;50.028;9.258;2023-08-17T06:17:36;99588.38;;;16.98;100.00
13800;BME280;6971;50.028;9.258;2023-08-17T06:22:36;99580.25;;;17.00;100.00
13800;BME280;6971;50.028;9.258;2023-08-17T06:27:37;99577.75;;;17.21;100.00
13800;BME280;6971;50.028;9.258;2023-08-17T06:32:38;99580.91;;;17.15;100.00
13800;BME280;6971;50.028;9.258;2023-08-17T06:37:39;99586.22;;;17.26;100.00
13800;BME280;6971;50.028;9.258;2023-08-17T06:42:39;99588.03;;;17.37;100.00
13800;BME280;6971;50.028;9.258;2023-08-17T06:47:40;99577.22;;;17.39;100.00
13800;BME280;6971;50.028;9.258;2023-08-17T06:52:40;99578.66;;;17.54;100.00
13800;BME280;6971;50.028;9.258;2023-08-17T06:57:41;99585.22;;;17.61;100.00
13800;BME280;6971;50.028;9.258;2023-08-17T07:02:41;99589.69;;;17.61;100.00
13800;BME280;6971;50.028;9.258;2023-08-17T07:07:42;99597.72;;;17.94;100.00
13800;BME280;6971;50.028;9.258;2023-08-17T07:12:43;99592.91;;;17.76;100.00
13800;BME280;6971;50.028;9.258;2023-08-17T07:17:44;99582.88;;;18.01;100.00
13800;BME280;6971;50.028;9.258;2023-08-17T07:22:44;99581.88;;;18.13;100.00
13800;BME280;6971;50.028;9.258;2023-08-17T07:27:44;99583.56;;;18.14;100.00
13800;BME280;6971;50.028;9.258;2023-08-17T07:32:46;99581.66;;;18.05;100.00
13800;BME280;6971;50.028;9.258;2023-08-17T07:37:46;99585.50;;;18.24;100.00
13800;BME280;6971;50.028;9.258;2023-08-17T07:42:47;99583.88;;;18.33;100.00
13800;BME280;6971;50.028;9.258;2023-08-17T07:47:48;99592.31;;;18.38;100.00
13800;BME280;6971;50.028;9.258;2023-08-17T07:52:48;99592.41;;;18.48;100.00
13800;BME280;6971;50.028;9.258;2023-08-17T07:57:48;99588.88;;;18.69;100.00
13800;BME280;6971;50.028;9.258;2023-08-17T08:02:49;99592.81;;;18.74;100.00
13800;BME280;6971;50.028;9.258;2023-08-17T08:07:50;99586.78;;;19.03;100.00
13800;BME280;6971;50.028;9.258;2023-08-17T08:12:50;99581.84;;;19.20;100.00
13800;BME280;6971;50.028;9.258;2023-08-17T08:17:51;99593.81;;;19.26;100.00
13800;BME280;6971;50.028;9.258;2023-08-17T08:22:51;99597.09;;;19.49;100.00
13800;BME280;6971;50.028;9.258;2023-08-17T08:27:52;99592.16;;;20.15;100.00
13800;BME280;6971;50.028;9.258;2023-08-17T08:32:52;99583.38;;;21.10;100.00
13800;BME280;6971;50.028;9.258;2023-08-17T08:37:53;99579.88;;;22.47;100.00
13800;BME280;6971;50.028;9.258;2023-08-17T08:42:57;99588.00;;;23.52;100.00
13800;BME280;6971;50.028;9.258;2023-08-17T08:48:01;99584.47;;;23.51;100.00
13800;BME280;6971;50.028;9.258;2023-08-17T08:53:10;99591.97;;;24.66;100.00
13800;BME280;6971;50.028;9.258;2023-08-17T08:58:12;99590.16;;;25.23;100.00
13800;BME280;6971;50.028;9.258;2023-08-17T09:03:17;99583.19;;;23.80;100.00
13800;BME280;6971;50.028;9.258;2023-08-17T09:08:29;99586.06;;;24.79;100.00
13800;BME280;6971;50.028;9.258;2023-08-17T09:13:30;99593.69;;;25.55;99.01
13800;BME280;6971;50.028;9.258;2023-08-17T09:18:31;99584.94;;;25.53;100.00
13800;BME280;6971;50.028;9.258;2023-08-17T09:23:31;99583.09;;;25.53;99.70
13800;BME280;6971;50.028;9.258;2023-08-17T09:28:32;99593.69;;;25.63;97.79
13800;BME280;6971;50.028;9.258;2023-08-17T09:33:34;99592.34;;;25.59;100.00
13800;BME280;6971;50.028;9.258;2023-08-17T09:38:36;99596.59;;;26.09;98.78
13800;BME280;6971;50.028;9.258;2023-08-17T09:43:38;99591.13;;;26.55;91.81
13800;BME280;6971;50.028;9.258;2023-08-17T09:48:39;99585.06;;;25.28;100.00
13800;BME280;6971;50.028;9.258;2023-08-17T09:53:39;99580.88;;;25.65;99.88
13800;BME280;6971;50.028;9.258;2023-08-17T09:58:40;99583.13;;;25.77;100.00
13800;BME280;6971;50.028;9.258;2023-08-17T10:03:45;99577.78;;;25.68;96.13
13800;BME280;6971;50.028;9.258;2023-08-17T10:08:47;99571.03;;;26.58;91.63
13800;BME280;6971;50.028;9.258;2023-08-17T10:19:12;99575.66;;;27.03;91.19
13800;BME280;6971;50.028;9.258;2023-08-17T10:24:13;99571.91;;;27.04;89.93
13800;BME280;6971;50.028;9.258;2023-08-17T10:29:17;99570.59;;;27.15;88.81
13800;BME280;6971;50.028;9.258;2023-08-17T10:34:18;99566.13;;;27.44;87.75
13800;BME280;6971;50.028;9.258;2023-08-17T10:39:21;99561.78;;;27.28;85.48
13800;BME280;6971;50.028;9.258;2023-08-17T10:49:44;99550.16;;;28.08;82.88
13800;BME280;6971;50.028;9.258;2023-08-17T10:54:45;99548.34;;;28.37;80.03
13800;BME280;6971;50.028;9.258;2023-08-17T10:59:45;99546.91;;;27.54;83.89
13800;BME280;6971;50.028;9.258;2023-08-17T11:04:51;99545.59;;;26.97;85.52
13800;BME280;6971;50.028;9.258;2023-08-17T11:09:53;99552.25;;;26.26;89.49
13800;BME280;6971;50.028;9.258;2023-08-17T11:14:57;99552.28;;;27.69;82.35
13800;BME280;6971;50.028;9.258;2023-08-17T11:20:00;99549.91;;;28.02;80.89
13800;BME280;6971;50.028;9.258;2023-08-17T11:25:00;99558.28;;;28.08;80.98
13800;BME280;6971;50.028;9.258;2023-08-17T11:30:01;99555.56;;;28.30;77.89
13800;BME280;6971;50.028;9.258;2023-08-17T11:35:02;99559.75;;;28.61;76.09
13800;BME280;6971;50.028;9.258;2023-08-17T11:40:03;99540.88;;;28.46;77.66
13800;BME280;6971;50.028;9.258;2023-08-17T11:45:05;99558.06;;;28.60;78.47
13800;BME280;6971;50.028;9.258;2023-08-17T11:50:09;99552.56;;;28.82;73.87
13800;BME280;6971;50.028;9.258;2023-08-17T11:55:10;99541.25;;;28.36;77.80
13800;BME280;6971;50.028;9.258;2023-08-17T12:00:17;99552.81;;;28.51;76.07
13800;BME280;6971;50.028;9.258;2023-08-17T12:05:24;99550.44;;;28.41;74.02
13800;BME280;6971;50.028;9.258;2023-08-17T12:10:28;99543.56;;;29.10;74.89
13800;BME280;6971;50.028;9.258;2023-08-17T12:15:31;99546.31;;;29.23;74.00
13800;BME280;6971;50.028;9.258;2023-08-17T12:20:33;99552.06;;;28.93;73.20
13800;BME280;6971;50.028;9.258;2023-08-17T12:25:37;99539.97;;;28.96;72.30
13800;BME280;6971;50.028;9.258;2023-08-17T12:30:38;99523.88;;;28.59;76.10
13800;BME280;6971;50.028;9.258;2023-08-17T12:35:39;99526.44;;;29.02;73.47
13800;BME280;6971;50.028;9.258;2023-08-17T12:40:40;99527.22;;;28.61;74.40
13800;BME280;6971;50.028;9.258;2023-08-17T12:45:41;99529.63;;;28.20;76.26
13800;BME280;6971;50.028;9.258;2023-08-17T12:50:41;99530.38;;;28.29;76.04
13800;BME280;6971;50.028;9.258;2023-08-17T12:55:42;99539.69;;;27.76;78.39
13800;BME280;6971;50.028;9.258;2023-08-17T13:00:42;99541.66;;;27.89;76.26
13800;BME280;6971;50.028;9.258;2023-08-17T13:05:43;99548.56;;;28.42;75.20
13800;BME280;6971;50.028;9.258;2023-08-17T13:10:43;99540.38;;;27.85;81.50
13800;BME280;6971;50.028;9.258;2023-08-17T13:15:44;99550.00;;;27.14;84.77
13800;BME280;6971;50.028;9.258;2023-08-17T13:20:45;99538.63;;;27.03;84.99
13800;BME280;6971;50.028;9.258;2023-08-17T13:25:46;99525.19;;;26.95;85.83
13800;BME280;6971;50.028;9.258;2023-08-17T13:30:46;99518.19;;;26.85;86.00
13800;BME280;6971;50.028;9.258;2023-08-17T13:35:47;99525.94;;;26.58;86.99
13800;BME280;6971;50.028;9.258;2023-08-17T13:40:47;99534.25;;;26.18;90.64
13800;BME280;6971;50.028;9.258;2023-08-17T13:45:47;99530.00;;;26.01;90.39
13800;BME280;6971;50.028;9.258;2023-08-17T13:50:48;99533.34;;;26.03;90.92
13800;BME280;6971;50.028;9.258;2023-08-17T13:55:49;99520.13;;;26.08;89.95
13800;BME280;6971;50.028;9.258;2023-08-17T14:00:50;99518.78;;;25.89;91.39
13800;BME280;6971;50.028;9.258;2023-08-17T14:05:50;99512.03;;;26.46;90.15
13800;BME280;6971;50.028;9.258;2023-08-17T14:10:51;99510.53;;;26.29;87.61
13800;BME280;6971;50.028;9.258;2023-08-17T14:15:51;99507.94;;;26.36;86.94
13800;BME280;6971;50.028;9.258;2023-08-17T14:20:52;99493.63;;;26.12;90.82
13800;BME280;6971;50.028;9.258;2023-08-17T14:25:53;99490.63;;;26.75;88.26
13800;BME280;6971;50.028;9.258;2023-08-17T14:30:54;99471.59;;;26.38;90.34
13800;BME280;6971;50.028;9.258;2023-08-17T14:35:54;99465.97;;;26.25;91.22
13800;BME280;6971;50.028;9.258;2023-08-17T14:40:55;99440.31;;;26.59;88.58
13800;BME280;6971;50.028;9.258;2023-08-17T14:45:56;99439.56;;;26.65;88.31
13800;BME280;6971;50.028;9.258;2023-08-17T14:50:57;99429.84;;;26.86;87.60
13800;BME280;6971;50.028;9.258;2023-08-17T14:55:57;99417.66;;;26.75;85.99
13800;BME280;6971;50.028;9.258;2023-08-17T15:00:58;99409.19;;;26.63;88.51
13800;BME280;6971;50.028;9.258;2023-08-17T15:05:58;99395.50;;;26.65;86.90
13800;BME280;6971;50.028;9.258;2023-08-17T15:11:00;99388.97;;;26.59;87.76
13800;BME280;6971;50.028;9.258;2023-08-17T15:16:02;99388.88;;;26.67;86.94
13800;BME280;6971;50.028;9.258;2023-08-17T15:21:03;99394.28;;;26.67;88.35
13800;BME280;6971;50.028;9.258;2023-08-17T15:26:03;99382.53;;;26.60;87.21
13800;BME280;6971;50.028;9.258;2023-08-17T15:31:04;99391.34;;;26.47;88.53
13800;BME280;6971;50.028;9.258;2023-08-17T15:36:06;99396.63;;;26.25;89.19
13800;BME280;6971;50.028;9.258;2023-08-17T15:41:06;99391.72;;;26.29;89.71
13800;BME280;6971;50.028;9.258;2023-08-17T15:46:07;99400.53;;;26.38;89.67
13800;BME280;6971;50.028;9.258;2023-08-17T15:51:15;99395.94;;;26.23;89.92
13800;BME280;6971;50.028;9.258;2023-08-17T15:56:22;99398.91;;;26.13;92.28
13800;BME280;6971;50.028;9.258;2023-08-17T16:01:23;99405.72;;;26.24;94.86
13800;BME280;6971;50.028;9.258;2023-08-17T16:06:24;99403.22;;;26.23;92.89
13800;BME280;6971;50.028;9.258;2023-08-17T16:11:24;99411.53;;;26.21;100.00
13800;BME280;6971;50.028;9.258;2023-08-17T16:16:25;99402.03;;;26.10;100.00
13800;BME280;6971;50.028;9.258;2023-08-17T16:21:25;99404.75;;;25.72;100.00
13800;BME280;6971;50.028;9.258;2023-08-17T16:26:25;99402.44;;;25.22;100.00
13800;BME280;6971;50.028;9.258;2023-08-17T16:31:27;99389.13;;;25.20;100.00
13800;BME280;6971;50.028;9.258;2023-08-17T16:36:27;99398.59;;;24.84;100.00
13800;BME280;6971;50.028;9.258;2023-08-17T16:41:28;99399.59;;;24.83;100.00
13800;BME280;6971;50.028;9.258;2023-08-17T16:46:28;99405.41;;;24.72;100.00
13800;BME280;6971;50.028;9.258;2023-08-17T16:51:28;99414.78;;;24.84;100.00
13800;BME280;6971;50.028;9.258;2023-08-17T16:56:29;99413.91;;;24.92;100.00
13800;BME280;6971;50.028;9.258;2023-08-17T17:01:30;99431.75;;;24.93;100.00
13800;BME280;6971;50.028;9.258;2023-08-17T17:06:31;99433.25;;;24.96;100.00
13800;BME280;6971;50.028;9.258;2023-08-17T17:11:32;99432.13;;;25.13;100.00
13800;BME280;6971;50.028;9.258;2023-08-17T17:16:32;99433.81;;;25.14;100.00
13800;BME280;6971;50.028;9.258;2023-08-17T17:21:33;99423.19;;;25.13;100.00
13800;BME280;6971;50.028;9.258;2023-08-17T17:26:34;99422.72;;;25.09;100.00
13800;BME280;6971;50.028;9.258;2023-08-17T17:31:37;99421.75;;;25.02;100.00
13800;BME280;6971;50.028;9.258;2023-08-17T17:36:37;99419.13;;;24.94;100.00
13800;BME280;6971;50.028;9.258;2023-08-17T17:41:38;99424.56;;;24.77;100.00
13800;BME280;6971;50.028;9.258;2023-08-17T17:46:40;99425.44;;;24.69;100.00
13800;BME280;6971;50.028;9.258;2023-08-17T17:51:40;99426.03;;;24.48;100.00
13800;BME280;6971;50.028;9.258;2023-08-17T17:56:43;99441.22;;;24.41;100.00
13800;BME280;6971;50.028;9.258;2023-08-17T18:01:44;99440.38;;;24.32;100.00
13800;BME280;6971;50.028;9.258;2023-08-17T18:06:45;99436.91;;;23.90;100.00
13800;BME280;6971;50.028;9.258;2023-08-17T18:11:45;99432.22;;;23.67;100.00
13800;BME280;6971;50.028;9.258;2023-08-17T18:16:46;99445.47;;;23.35;100.00
13800;BME280;6971;50.028;9.258;2023-08-17T18:21:46;99436.66;;;23.16;100.00
13800;BME280;6971;50.028;9.258;2023-08-17T18:26:47;99435.06;;;22.89;100.00
13800;BME280;6971;50.028;9.258;2023-08-17T18:31:50;99446.09;;;22.69;100.00
13800;BME280;6971;50.028;9.258;2023-08-17T18:36:51;99456.22;;;22.49;100.00
13800;BME280;6971;50.028;9.258;2023-08-17T18:41:51;99469.59;;;22.40;100.00
13800;BME280;6971;50.028;9.258;2023-08-17T18:46:52;99477.63;;;22.14;100.00
13800;BME280;6971;50.028;9.258;2023-08-17T18:51:53;99485.75;;;21.96;100.00
13800;BME280;6971;50.028;9.258;2023-08-17T18:56:54;99496.91;;;21.91;100.00
13800;BME280;6971;50.028;9.258;2023-08-17T19:01:54;99499.22;;;21.86;100.00
13800;BME280;6971;50.028;9.258;2023-08-17T19:06:55;99505.72;;;21.65;100.00
13800;BME280;6971;50.028;9.258;2023-08-17T19:11:56;99515.97;;;21.51;100.00
13800;BME280;6971;50.028;9.258;2023-08-17T19:16:57;99519.31;;;21.35;100.00
13800;BME280;6971;50.028;9.258;2023-08-17T19:21:59;99520.47;;;21.15;100.00
13800;BME280;6971;50.028;9.258;2023-08-17T19:27:01;99518.22;;;21.10;100.00
13800;BME280;6971;50.028;9.258;2023-08-17T19:32:02;99518.94;;;21.12;100.00
13800;BME280;6971;50.028;9.258;2023-08-17T19:37:02;99525.66;;;20.88;100.00
13800;BME280;6971;50.028;9.258;2023-08-17T19:42:06;99524.09;;;20.76;100.00
13800;BME280;6971;50.028;9.258;2023-08-17T19:47:07;99518.75;;;20.76;100.00
13800;BME280;6971;50.028;9.258;2023-08-17T19:52:08;99506.38;;;20.74;100.00
13800;BME280;6971;50.028;9.258;2023-08-17T19:57:09;99502.69;;;20.76;100.00
13800;BME280;6971;50.028;9.258;2023-08-17T20:02:09;99506.50;;;20.73;100.00
13800;BME280;6971;50.028;9.258;2023-08-17T20:07:10;99501.63;;;20.68;100.00
13800;BME280;6971;50.028;9.258;2023-08-17T20:12:11;99491.16;;;20.75;100.00
13800;BME280;6971;50.028;9.258;2023-08-17T20:17:12;99499.63;;;20.70;100.00
13800;BME280;6971;50.028;9.258;2023-08-17T20:22:14;99495.94;;;20.71;100.00
13800;BME280;6971;50.028;9.258;2023-08-17T20:27:14;99485.97;;;20.64;100.00
13800;BME280;6971;50.028;9.258;2023-08-17T20:32:15;99489.53;;;20.54;100.00
13800;BME280;6971;50.028;9.258;2023-08-17T20:37:16;99493.22;;;20.53;100.00
13800;BME280;6971;50.028;9.258;2023-08-17T20:42:17;99495.38;;;20.40;100.00
13800;BME280;6971;50.028;9.258;2023-08-17T20:47:19;99495.50;;;20.38;100.00
13800;BME280;6971;50.028;9.258;2023-08-17T20:52:19;99497.78;;;20.33;100.00
13800;BME280;6971;50.028;9.258;2023-08-17T20:57:20;99492.56;;;20.31;100.00
13800;BME280;6971;50.028;9.258;2023-08-17T21:02:22;99489.63;;;20.34;100.00
13800;BME280;6971;50.028;9.258;2023-08-17T21:07:23;99486.22;;;20.32;100.00
13800;BME280;6971;50.028;9.258;2023-08-17T21:12:24;99485.03;;;20.55;100.00
13800;BME280;6971;50.028;9.258;2023-08-17T21:17:27;99493.78;;;20.85;100.00
13800;BME280;6971;50.028;9.258;2023-08-17T21:22:28;99489.84;;;20.89;100.00
13800;BME280;6971;50.028;9.258;2023-08-17T21:27:29;99486.91;;;21.10;100.00
13800;BME280;6971;50.028;9.258;2023-08-17T21:32:30;99489.84;;;21.17;100.00
13800;BME280;6971;50.028;9.258;2023-08-17T21:37:30;99491.03;;;21.05;100.00
13800;BME280;6971;50.028;9.258;2023-08-17T21:42:31;99487.44;;;20.86;100.00
13800;BME280;6971;50.028;9.258;2023-08-17T21:47:32;99498.22;;;20.66;100.00
13800;BME280;6971;50.028;9.258;2023-08-17T21:52:32;99487.75;;;20.45;100.00
13800;BME280;6971;50.028;9.258;2023-08-17T21:57:34;99491.56;;;20.32;100.00
13800;BME280;6971;50.028;9.258;2023-08-17T22:02:35;99486.22;;;20.22;100.00
13800;BME280;6971;50.028;9.258;2023-08-17T22:07:35;99483.75;;;20.01;100.00
13800;BME280;6971;50.028;9.258;2023-08-17T22:12:36;99485.56;;;19.81;100.00
13800;BME280;6971;50.028;9.258;2023-08-17T22:17:37;99484.56;;;19.72;100.00
13800;BME280;6971;50.028;9.258;2023-08-17T22:22:37;99479.94;;;19.74;100.00
13800;BME280;6971;50.028;9.258;2023-08-17T22:27:38;99484.47;;;19.64;100.00
13800;BME280;6971;50.028;9.258;2023-08-17T22:32:39;99482.03;;;19.41;100.00
13800;BME280;6971;50.028;9.258;2023-08-17T22:37:40;99483.16;;;19.38;100.00
13800;BME280;6971;50.028;9.258;2023-08-17T22:42:40;99484.94;;;19.18;100.00
13800;BME280;6971;50.028;9.258;2023-08-17T22:47:41;99477.44;;;19.02;100.00
13800;BME280;6971;50.028;9.258;2023-08-17T22:52:42;99466.06;;;19.00;100.00
13800;BME280;6971;50.028;9.258;2023-08-17T22:57:42;99472.06;;;18.92;100.00
13800;BME280;6971;50.028;9.258;2023-08-17T23:02:43;99466.41;;;18.85;100.00
13800;BME280;6971;50.028;9.258;2023-08-17T23:07:44;99463.31;;;18.80;100.00
13800;BME280;6971;50.028;9.258;2023-08-17T23:12:44;99459.91;;;18.68;100.00
13800;BME280;6971;50.028;9.258;2023-08-17T23:17:46;99460.59;;;18.60;100.00
13800;BME280;6971;50.028;9.258;2023-08-17T23:22:46;99463.25;;;18.60;100.00
13800;BME280;6971;50.028;9.258;2023-08-17T23:27:47;99468.16;;;18.55;100.00
13800;BME280;6971;50.028;9.258;2023-08-17T23:32:47;99469.22;;;18.43;100.00
13800;BME280;6971;50.028;9.258;2023-08-17T23:37:51;99471.81;;;18.33;100.00
13800;BME280;6971;50.028;9.258;2023-08-17T23:42:51;99465.84;;;18.19;100.00
13800;BME280;6971;50.028;9.258;2023-08-17T23:47:52;99470.16;;;18.10;100.00
13800;BME280;6971;50.028;9.258;2023-08-17T23:52:53;99473.41;;;18.14;100.00
13800;BME280;6971;50.028;9.258;2023-08-17T23:57:54;99479.19;;;17.98;100.00
